createdAt,value
2022-12-20T00:01:28.015Z,22.55
2022-12-20T00:03:56.789Z,25.25
2022-12-20T00:06:24.618Z,24.20
2022-12-20T00:08:59.737Z,20.85
2022-12-20T00:11:28.026Z,22.90
2022-12-20T00:13:54.949Z,25.63
2022-12-20T00:16:24.856Z,24.63
2022-12-20T00:18:53.881Z,22.48
2022-12-20T00:21:20.773Z,33.75
2022-12-20T00:23:47.749Z,20.80
2022-12-20T00:26:17.217Z,23.20
2022-12-20T00:28:45.572Z,26.30
2022-12-20T00:31:15.970Z,23.10
2022-12-20T00:33:46.869Z,26.05
2022-12-20T00:36:14.133Z,21.13
2022-12-20T00:38:41.303Z,24.48
2022-12-20T00:41:11.085Z,21.30
2022-12-20T00:43:39.318Z,29.08
2022-12-20T00:46:07.952Z,25.73
2022-12-20T00:48:35.484Z,26.30
2022-12-20T00:51:11.460Z,20.52
2022-12-20T00:53:39.724Z,25.13
2022-12-20T00:56:07.646Z,19.70
2022-12-20T00:58:37.147Z,21.52
2022-12-20T01:01:06.331Z,15.20
2022-12-20T01:03:33.591Z,25.90
2022-12-20T01:06:02.127Z,25.13
2022-12-20T01:08:30.981Z,21.48
2022-12-20T01:11:01.776Z,21.92
2022-12-20T01:13:30.121Z,22.63
2022-12-20T01:15:57.602Z,25.58
2022-12-20T01:18:24.496Z,20.38
2022-12-20T01:21:01.500Z,20.05
2022-12-20T01:23:28.558Z,20.25
2022-12-20T01:25:58.345Z,18.55
2022-12-20T01:28:25.335Z,20.25
2022-12-20T01:30:52.482Z,17.05
2022-12-20T01:33:19.531Z,20.83
2022-12-20T01:36:13.727Z,24.13
2022-12-20T01:38:40.597Z,23.25
2022-12-20T01:41:07.525Z,22.23
2022-12-20T01:43:49.982Z,20.77
2022-12-20T01:46:17.809Z,16.38
2022-12-20T01:49:10.946Z,20.73
2022-12-20T01:51:44.792Z,27.13
2022-12-20T01:54:19.127Z,20.33
2022-12-20T01:56:54.139Z,23.30
2022-12-20T01:59:21.201Z,21.63
2022-12-20T02:01:48.291Z,18.27
2022-12-20T02:04:15.267Z,25.33
2022-12-20T02:06:43.554Z,20.83
2022-12-20T02:09:10.671Z,24.27
2022-12-20T02:11:53.421Z,23.75
2022-12-20T02:14:43.461Z,20.63
2022-12-20T02:17:22.589Z,20.05
2022-12-20T02:20:33.239Z,24.73
2022-12-20T02:23:00.092Z,23.20
2022-12-20T02:25:57.969Z,16.38
2022-12-20T02:28:33.829Z,21.52
2022-12-20T02:31:05.409Z,19.45
2022-12-20T02:33:32.449Z,19.88
2022-12-20T02:35:59.874Z,21.55
2022-12-20T02:38:34.928Z,17.02
2022-12-20T02:41:08.294Z,18.67
2022-12-20T02:43:58.239Z,21.77
2022-12-20T02:46:27.592Z,21.25
2022-12-20T02:48:58.403Z,24.98
2022-12-20T02:51:28.756Z,23.30
2022-12-20T02:53:57.482Z,26.40
2022-12-20T02:56:36.624Z,21.63
2022-12-20T02:59:11.581Z,24.60
2022-12-20T03:02:01.180Z,22.33
2022-12-20T03:04:31.121Z,17.85
2022-12-20T03:06:58.059Z,23.25
2022-12-20T03:09:25.157Z,19.40
2022-12-20T03:11:53.541Z,20.05
2022-12-20T03:14:20.612Z,21.55
2022-12-20T03:16:49.582Z,16.88
2022-12-20T03:19:16.826Z,22.45
2022-12-20T03:21:43.835Z,20.48
2022-12-20T03:24:16.374Z,19.63
2022-12-20T03:26:43.856Z,24.88
2022-12-20T03:29:11.008Z,22.33
2022-12-20T03:31:39.042Z,21.55
2022-12-20T03:34:06.623Z,20.40
2022-12-20T03:36:35.013Z,21.63
2022-12-20T03:39:05.110Z,22.48
2022-12-20T03:41:36.244Z,18.70
2022-12-20T03:44:06.931Z,24.38
2022-12-20T03:46:34.191Z,22.20
2022-12-20T03:49:01.169Z,25.30
2022-12-20T03:51:29.507Z,23.15
2022-12-20T03:53:57.129Z,23.85
2022-12-20T03:56:34.903Z,23.42
2022-12-20T03:59:04.428Z,18.90
2022-12-20T04:01:31.703Z,26.95
2022-12-20T04:03:59.369Z,21.63
2022-12-20T04:06:27.440Z,21.98
2022-12-20T04:08:54.639Z,22.60
2022-12-20T04:11:27.785Z,20.65
2022-12-20T04:14:21.017Z,24.88
2022-12-20T04:16:49.334Z,21.10
2022-12-20T04:19:16.824Z,21.40
2022-12-20T04:21:46.902Z,23.30
2022-12-20T04:24:15.753Z,21.13
2022-12-20T04:27:00.846Z,21.40
2022-12-20T04:29:28.173Z,22.20
2022-12-20T04:31:55.427Z,19.20
2022-12-20T04:34:22.974Z,21.17
2022-12-20T04:36:50.046Z,21.92
2022-12-20T04:39:25.783Z,22.02
2022-12-20T04:42:16.300Z,22.85
2022-12-20T04:44:43.879Z,21.52
2022-12-20T04:47:11.588Z,23.67
2022-12-20T04:49:38.614Z,25.98
2022-12-20T04:52:24.506Z,23.20
2022-12-20T04:57:24.225Z,18.00
2022-12-20T04:59:52.085Z,22.42
2022-12-20T05:02:19.447Z,21.95
2022-12-20T05:04:53.221Z,24.23
2022-12-20T05:07:20.354Z,25.45
2022-12-20T05:09:51.452Z,21.85
2022-12-20T05:12:18.303Z,22.83
2022-12-20T05:14:45.664Z,21.15
2022-12-20T05:17:15.638Z,22.92
2022-12-20T05:19:42.520Z,27.27
2022-12-20T05:22:29.910Z,27.08
2022-12-20T05:25:30.775Z,25.73
2022-12-20T05:28:01.678Z,22.15
2022-12-20T05:30:33.108Z,22.85
2022-12-20T05:33:00.196Z,23.85
2022-12-20T05:35:28.006Z,25.48
2022-12-20T05:38:02.924Z,23.38
2022-12-20T05:40:31.008Z,21.77
2022-12-20T05:42:58.846Z,22.02
2022-12-20T05:45:35.561Z,22.48
2022-12-20T05:48:07.841Z,26.65
2022-12-20T05:50:38.473Z,24.27
2022-12-20T05:55:54.724Z,23.00
2022-12-20T05:58:26.748Z,21.92
2022-12-20T06:01:01.081Z,27.23
2022-12-20T06:03:28.667Z,24.90
2022-12-20T06:05:56.144Z,20.38
2022-12-20T06:08:27.490Z,23.13
2022-12-20T06:10:56.191Z,28.20
2022-12-20T06:13:24.277Z,26.65
2022-12-20T06:15:53.940Z,25.63
2022-12-20T06:18:22.046Z,26.42
2022-12-20T06:20:53.774Z,24.75
2022-12-20T06:23:23.485Z,17.05
2022-12-20T06:26:04.929Z,21.55
2022-12-20T06:28:35.578Z,22.83
2022-12-20T06:31:02.815Z,23.45
2022-12-20T06:33:40.515Z,24.38
2022-12-20T06:36:07.813Z,26.70
2022-12-20T06:38:35.854Z,28.45
2022-12-20T06:41:03.491Z,22.27
2022-12-20T06:43:31.321Z,21.60
2022-12-20T06:45:58.299Z,28.05
2022-12-20T06:48:25.488Z,30.73
2022-12-20T06:50:56.094Z,23.85
2022-12-20T06:53:24.858Z,22.50
2022-12-20T06:55:51.811Z,20.67
2022-12-20T06:58:21.514Z,22.63
2022-12-20T07:00:49.421Z,24.95
2022-12-20T07:03:16.830Z,21.45
2022-12-20T07:05:43.824Z,26.70
2022-12-20T07:08:10.791Z,28.45
2022-12-20T07:10:38.274Z,25.27
2022-12-20T07:13:05.364Z,23.70
2022-12-20T07:15:32.612Z,21.70
2022-12-20T07:17:59.706Z,14.27
2022-12-20T07:20:26.676Z,19.63
2022-12-20T07:22:53.738Z,20.77
2022-12-20T07:25:21.016Z,17.60
2022-12-20T07:27:50.060Z,19.13
2022-12-20T07:30:18.337Z,16.10
2022-12-20T07:32:45.500Z,18.80
2022-12-20T07:35:13.662Z,14.40
2022-12-20T07:37:41.177Z,16.30
2022-12-20T07:40:09.724Z,16.20
2022-12-20T07:42:39.045Z,14.32
2022-12-20T07:45:07.834Z,13.52
2022-12-20T07:47:35.998Z,14.10
2022-12-20T07:50:03.787Z,16.30
2022-12-20T07:52:34.627Z,12.23
2022-12-20T07:55:04.088Z,19.48
2022-12-20T07:57:57.562Z,14.27
2022-12-20T08:00:24.954Z,14.02
2022-12-20T08:03:02.984Z,14.63
2022-12-20T08:05:30.886Z,16.50
2022-12-20T08:08:00.272Z,12.20
2022-12-20T08:10:28.269Z,13.10
2022-12-20T08:12:55.727Z,13.77
2022-12-20T08:15:23.265Z,13.95
2022-12-20T08:17:50.888Z,10.93
2022-12-20T08:20:17.912Z,13.27
2022-12-20T08:22:45.328Z,14.27
2022-12-20T08:25:12.507Z,14.10
2022-12-20T08:27:39.496Z,10.38
2022-12-20T08:30:08.560Z,12.93
2022-12-20T08:32:36.412Z,12.80
2022-12-20T08:35:04.441Z,15.68
2022-12-20T08:37:31.442Z,18.60
2022-12-20T08:39:58.504Z,15.18
2022-12-20T08:42:25.440Z,12.65
2022-12-20T08:44:52.271Z,12.95
2022-12-20T08:47:19.168Z,13.63
2022-12-20T08:49:48.061Z,13.00
2022-12-20T08:52:15.392Z,14.77
2022-12-20T08:54:42.341Z,13.63
2022-12-20T08:57:09.260Z,12.70
2022-12-20T08:59:36.187Z,16.08
2022-12-20T09:02:03.209Z,11.95
2022-12-20T09:04:30.490Z,11.73
2022-12-20T09:06:57.391Z,10.15
2022-12-20T09:09:24.316Z,11.63
2022-12-20T09:11:51.198Z,10.95
2022-12-20T09:14:18.617Z,9.68
2022-12-20T09:16:45.499Z,8.25
2022-12-20T09:19:14.392Z,10.18
2022-12-20T09:21:41.615Z,10.95
2022-12-20T09:24:09.868Z,12.68
2022-12-20T09:26:37.111Z,11.80
2022-12-20T09:29:05.318Z,12.23
2022-12-20T09:31:32.275Z,8.85
2022-12-20T09:33:59.975Z,9.93
2022-12-20T09:36:29.446Z,10.32
2022-12-20T09:38:57.477Z,12.07
2022-12-20T09:41:33.429Z,11.15
2022-12-20T09:44:05.596Z,10.82
2022-12-20T09:46:33.502Z,9.73
2022-12-20T09:49:00.704Z,11.25
2022-12-20T09:52:08.709Z,9.38
2022-12-20T09:54:50.042Z,11.35
2022-12-20T09:57:44.597Z,11.02
2022-12-20T10:00:21.122Z,10.15
2022-12-20T10:03:04.237Z,12.90
2022-12-20T10:05:51.817Z,10.25
2022-12-20T10:08:43.192Z,9.10
2022-12-20T10:11:29.584Z,12.30
2022-12-20T10:14:08.840Z,14.13
2022-12-20T10:16:53.904Z,10.77
2022-12-20T10:19:26.764Z,10.38
2022-12-20T10:22:14.494Z,16.65
2022-12-20T10:24:48.240Z,10.95
2022-12-20T10:27:19.933Z,11.20
2022-12-20T10:29:49.698Z,14.50
2022-12-20T10:32:20.509Z,12.98
2022-12-20T10:34:56.757Z,23.15
2022-12-20T10:37:23.674Z,10.15
2022-12-20T10:39:52.190Z,21.83
2022-12-20T10:42:36.292Z,7.25
2022-12-20T10:45:03.840Z,29.90
2022-12-20T10:47:44.496Z,27.45
2022-12-20T10:50:23.015Z,20.92
2022-12-20T10:53:08.166Z,21.73
2022-12-20T10:55:36.969Z,24.15
2022-12-20T10:58:07.259Z,20.70
2022-12-20T11:00:34.465Z,22.30
2022-12-20T11:03:22.273Z,18.23
2022-12-20T11:05:59.792Z,19.80
2022-12-20T11:08:45.019Z,16.92
2022-12-20T11:11:24.829Z,29.55
2022-12-20T11:13:52.836Z,22.02
2022-12-20T11:16:40.478Z,17.50
2022-12-20T11:19:21.266Z,22.42
2022-12-20T11:22:05.041Z,24.98
2022-12-20T11:24:44.306Z,26.67
2022-12-20T11:27:28.904Z,20.70
2022-12-20T11:30:09.882Z,20.40
2022-12-20T11:32:53.874Z,15.40
2022-12-20T11:35:58.549Z,20.13
2022-12-20T11:38:32.788Z,14.60
2022-12-20T11:41:38.361Z,21.42
2022-12-20T11:44:48.696Z,24.38
2022-12-20T11:47:49.170Z,20.63
2022-12-20T11:50:27.882Z,12.82
2022-12-20T11:53:00.355Z,19.30
2022-12-20T11:55:32.223Z,7.80
2022-12-20T11:58:20.883Z,13.40
2022-12-20T12:00:56.371Z,10.20
2022-12-20T12:03:36.933Z,9.80
2022-12-20T12:06:16.393Z,8.95
2022-12-20T12:09:05.295Z,9.15
2022-12-20T12:14:29.967Z,7.13
2022-12-20T12:17:03.952Z,11.02
2022-12-20T12:19:32.130Z,11.95
2022-12-20T12:22:10.215Z,8.93
2022-12-20T12:24:43.861Z,9.15
2022-12-20T12:27:28.218Z,13.88
2022-12-20T12:29:58.788Z,8.10
2022-12-20T12:32:38.250Z,8.40
2022-12-20T12:35:36.237Z,9.75
2022-12-20T12:38:24.385Z,7.78
2022-12-20T12:41:15.814Z,11.02
2022-12-20T12:43:53.585Z,9.77
2022-12-20T12:46:29.110Z,9.95
2022-12-20T12:49:01.949Z,9.40
2022-12-20T12:51:33.147Z,10.18
2022-12-20T12:54:10.345Z,8.15
2022-12-20T12:56:51.346Z,13.18
2022-12-20T12:59:24.344Z,7.28
2022-12-20T13:01:54.099Z,14.98
2022-12-20T13:04:21.175Z,6.05
2022-12-20T13:06:48.075Z,8.88
2022-12-20T13:09:25.481Z,8.23
2022-12-20T13:12:01.123Z,11.07
2022-12-20T13:14:30.232Z,8.55
2022-12-20T13:17:12.353Z,11.88
2022-12-20T13:19:51.107Z,11.05
2022-12-20T13:22:18.046Z,12.55
2022-12-20T13:24:53.405Z,10.05
2022-12-20T13:30:12.332Z,9.13
2022-12-20T13:32:48.464Z,11.73
2022-12-20T13:35:28.217Z,8.90
2022-12-20T13:38:26.101Z,9.13
2022-12-20T13:41:00.710Z,9.98
2022-12-20T13:43:41.361Z,10.75
2022-12-20T13:46:11.410Z,7.38
2022-12-20T13:48:38.412Z,11.15
2022-12-20T13:51:10.742Z,10.52
2022-12-20T13:53:39.394Z,11.77
2022-12-20T13:56:33.689Z,11.93
2022-12-20T13:59:07.546Z,12.90
2022-12-20T14:01:36.359Z,13.88
2022-12-20T14:04:07.487Z,13.13
2022-12-20T14:06:35.352Z,9.52
2022-12-20T14:09:03.751Z,12.32
2022-12-20T14:11:30.741Z,7.97
2022-12-20T14:13:57.644Z,10.70
2022-12-20T14:16:27.066Z,17.35
2022-12-20T14:18:57.144Z,9.32
2022-12-20T14:21:25.750Z,11.45
2022-12-20T14:23:57.618Z,13.02
2022-12-20T14:26:28.641Z,9.85
2022-12-20T14:28:58.285Z,18.10
2022-12-20T14:31:44.469Z,11.30
2022-12-20T14:34:11.298Z,8.40
2022-12-20T14:36:40.259Z,10.82
2022-12-20T14:39:29.798Z,11.52
2022-12-20T14:42:01.819Z,10.55
2022-12-20T14:44:32.445Z,14.20
2022-12-20T14:47:04.163Z,12.02
2022-12-20T14:49:34.538Z,14.55
2022-12-20T14:52:34.561Z,14.73
2022-12-20T14:55:28.754Z,11.07
2022-12-20T14:57:58.074Z,12.13
2022-12-20T15:00:31.629Z,13.75
2022-12-20T15:03:12.946Z,13.35
2022-12-20T15:05:45.544Z,15.77
2022-12-20T15:08:14.756Z,16.65
2022-12-20T15:11:03.605Z,11.90
2022-12-20T15:13:37.427Z,16.85
2022-12-20T15:16:14.049Z,13.48
2022-12-20T15:18:41.068Z,16.08
2022-12-20T15:21:29.368Z,13.88
2022-12-20T15:23:59.768Z,14.18
2022-12-20T15:26:28.534Z,12.15
2022-12-20T15:28:55.896Z,14.85
2022-12-20T15:31:32.454Z,14.90
2022-12-20T15:34:02.524Z,13.90
2022-12-20T15:36:30.179Z,17.30
2022-12-20T15:39:14.760Z,17.58
2022-12-20T15:41:47.410Z,14.02
2022-12-20T15:44:25.390Z,15.02
2022-12-20T15:46:52.980Z,16.58
2022-12-20T15:49:23.763Z,14.35
2022-12-20T15:51:52.538Z,13.48
2022-12-20T15:54:32.972Z,13.95
2022-12-20T15:57:07.691Z,16.73
2022-12-20T16:02:23.569Z,15.57
2022-12-20T16:04:51.426Z,15.13
2022-12-20T16:07:18.696Z,22.00
2022-12-20T16:09:45.802Z,17.45
2022-12-20T16:12:29.678Z,21.98
2022-12-20T16:14:57.392Z,19.45
2022-12-20T16:17:24.459Z,23.77
2022-12-20T16:19:51.415Z,21.25
2022-12-20T16:22:22.336Z,23.27
2022-12-20T16:24:49.868Z,25.27
2022-12-20T16:27:17.010Z,29.60
2022-12-20T16:29:43.875Z,32.22
2022-12-20T16:32:19.793Z,26.80
2022-12-20T16:34:47.439Z,23.42
2022-12-20T16:37:14.431Z,26.73
2022-12-20T16:39:42.164Z,29.00
2022-12-20T16:42:17.325Z,42.58
2022-12-20T16:44:45.673Z,33.25
2022-12-20T16:47:14.365Z,29.50
2022-12-20T16:49:51.202Z,28.42
2022-12-20T16:52:19.988Z,35.30
2022-12-20T16:54:46.987Z,35.47
2022-12-20T16:57:13.967Z,30.98
2022-12-20T16:59:40.869Z,30.08
2022-12-20T17:02:27.739Z,34.70
2022-12-20T17:04:54.949Z,31.48
2022-12-20T17:07:22.333Z,39.00
2022-12-20T17:09:49.310Z,24.58
2022-12-20T17:12:18.302Z,21.67
2022-12-20T17:14:46.358Z,22.08
2022-12-20T17:17:13.641Z,20.75
2022-12-20T17:19:40.584Z,20.05
2022-12-20T17:22:23.143Z,20.92
2022-12-20T17:24:50.088Z,19.58
2022-12-20T17:27:16.986Z,20.85
2022-12-20T17:29:44.067Z,19.88
2022-12-20T17:32:22.124Z,23.15
2022-12-20T17:34:49.640Z,20.17
2022-12-20T17:37:18.263Z,26.55
2022-12-20T17:39:45.507Z,27.08
2022-12-20T17:42:16.804Z,29.48
2022-12-20T17:44:44.181Z,21.48
2022-12-20T17:47:11.887Z,23.45
2022-12-20T17:49:39.303Z,19.58
2022-12-20T17:52:06.300Z,22.58
2022-12-20T17:54:39.534Z,24.15
2022-12-20T17:57:14.599Z,25.20
2022-12-20T17:59:42.626Z,24.63
2022-12-20T18:02:27.843Z,24.30
2022-12-20T18:04:55.085Z,28.17
2022-12-20T18:07:22.065Z,31.77
2022-12-20T18:09:49.396Z,26.33
2022-12-20T18:12:17.256Z,27.35
2022-12-20T18:14:44.926Z,27.90
2022-12-20T18:17:11.976Z,27.98
2022-12-20T18:19:39.657Z,25.50
2022-12-20T18:22:06.659Z,28.42
2022-12-20T18:24:33.699Z,29.25
2022-12-20T18:27:00.651Z,24.55
2022-12-20T18:29:28.583Z,33.17
2022-12-20T18:31:55.486Z,28.73
2022-12-20T18:34:22.586Z,28.85
2022-12-20T18:36:49.420Z,27.65
2022-12-20T18:39:16.497Z,34.92
2022-12-20T18:41:44.340Z,34.53
2022-12-20T18:44:12.019Z,26.65
2022-12-20T18:46:39.266Z,29.77
2022-12-20T18:49:06.510Z,20.27
2022-12-20T18:51:38.658Z,22.80
2022-12-20T18:54:08.106Z,21.23
2022-12-20T18:56:37.802Z,22.63
2022-12-20T18:59:14.197Z,23.05
2022-12-20T19:01:43.286Z,21.33
2022-12-20T19:04:11.464Z,29.92
2022-12-20T19:06:38.979Z,31.30
2022-12-20T19:09:09.903Z,29.88
2022-12-20T19:11:37.807Z,33.85
2022-12-20T19:14:05.080Z,30.20
2022-12-20T19:16:33.231Z,34.00
2022-12-20T19:19:04.385Z,37.00
2022-12-20T19:21:35.848Z,29.52
2022-12-20T19:24:06.989Z,33.65
2022-12-20T19:26:36.508Z,39.08
2022-12-20T19:29:04.732Z,42.17
2022-12-20T19:31:34.469Z,42.17
2022-12-20T19:34:04.696Z,35.97
2022-12-20T19:36:38.535Z,28.23
2022-12-20T19:39:08.063Z,30.42
2022-12-20T19:41:35.720Z,27.00
2022-12-20T19:44:03.825Z,24.17
2022-12-20T19:46:30.884Z,29.38
2022-12-20T19:48:59.542Z,31.55
2022-12-20T19:51:27.976Z,33.80
2022-12-20T19:53:56.413Z,39.35
2022-12-20T19:56:26.351Z,35.97
2022-12-20T19:58:54.054Z,35.25
2022-12-20T20:01:25.685Z,34.22
2022-12-20T20:03:59.332Z,35.22
2022-12-20T20:06:27.491Z,40.65
2022-12-20T20:08:57.808Z,35.75
2022-12-20T20:11:25.291Z,33.10
2022-12-20T20:13:52.185Z,41.97
2022-12-20T20:16:22.571Z,39.33
2022-12-20T20:18:50.672Z,30.30
2022-12-20T20:21:22.041Z,29.65
2022-12-20T20:23:53.962Z,32.90
2022-12-20T20:26:24.989Z,36.28
2022-12-20T20:28:52.966Z,49.92
2022-12-20T20:31:21.559Z,37.92
2022-12-20T20:33:49.321Z,40.63
2022-12-20T20:36:19.778Z,44.70
2022-12-20T20:38:46.891Z,37.92
2022-12-20T20:41:14.461Z,50.17
2022-12-20T20:43:41.944Z,40.17
2022-12-20T20:46:11.665Z,33.90
2022-12-20T20:48:39.543Z,40.40
2022-12-20T20:51:07.185Z,37.15
2022-12-20T20:53:34.741Z,35.85
2022-12-20T20:56:06.389Z,29.33
2022-12-20T20:58:34.415Z,28.63
2022-12-20T21:01:03.501Z,31.40
2022-12-20T21:03:32.165Z,31.75
2022-12-20T21:08:46.083Z,41.42
2022-12-20T21:11:13.290Z,42.40
2022-12-20T21:13:40.445Z,35.10
2022-12-20T21:16:13.664Z,40.35
2022-12-20T21:18:40.634Z,35.42
2022-12-20T21:21:12.704Z,40.67
2022-12-20T21:23:43.706Z,40.03
2022-12-20T21:26:10.693Z,36.25
2022-12-20T21:28:37.671Z,40.15
2022-12-20T21:31:09.151Z,40.10
2022-12-20T21:33:36.468Z,45.28
2022-12-20T21:36:15.501Z,52.45
2022-12-20T21:38:42.983Z,55.78
2022-12-20T21:41:13.293Z,58.53
2022-12-20T21:43:40.370Z,49.47
2022-12-20T21:46:11.463Z,47.13
2022-12-20T21:48:40.219Z,42.05
2022-12-20T21:51:14.030Z,39.35
2022-12-20T21:53:50.128Z,33.70
2022-12-20T21:56:18.697Z,44.63
2022-12-20T21:58:46.074Z,50.22
2022-12-20T22:01:15.928Z,49.03
2022-12-20T22:03:45.514Z,40.78
2022-12-20T22:06:12.661Z,41.60
2022-12-20T22:08:39.805Z,44.13
2022-12-20T22:11:12.242Z,38.95
2022-12-20T22:13:41.978Z,36.33
2022-12-20T22:16:23.362Z,34.42
2022-12-20T22:18:52.305Z,36.95
2022-12-20T22:21:21.998Z,30.15
2022-12-20T22:23:50.271Z,29.75
2022-12-20T22:26:20.123Z,32.08
2022-12-20T22:29:04.939Z,49.50
2022-12-20T22:31:32.630Z,58.47
2022-12-20T22:34:00.100Z,51.72
2022-12-20T22:36:27.495Z,44.85
2022-12-20T22:38:56.711Z,40.15
2022-12-20T22:41:29.080Z,45.95
2022-12-20T22:43:58.277Z,35.67
2022-12-20T22:46:25.726Z,40.75
2022-12-20T22:48:52.716Z,36.60
2022-12-20T22:51:21.882Z,42.50
2022-12-20T22:53:49.519Z,49.42
2022-12-20T22:56:19.585Z,47.63
2022-12-20T22:58:46.861Z,43.88
2022-12-20T23:01:15.855Z,41.28
2022-12-20T23:03:43.305Z,47.78
2022-12-20T23:06:13.689Z,42.67
2022-12-20T23:08:41.307Z,49.05
2022-12-20T23:11:36.810Z,42.28
2022-12-20T23:14:23.578Z,34.75
2022-12-20T23:16:51.324Z,35.20
2022-12-20T23:19:18.400Z,39.78
2022-12-20T23:22:03.663Z,56.78
2022-12-20T23:24:30.541Z,69.10
2022-12-20T23:26:57.809Z,59.15
2022-12-20T23:29:24.740Z,63.00
2022-12-20T23:31:51.737Z,67.28
2022-12-20T23:34:18.765Z,64.45
2022-12-20T23:36:45.891Z,63.00
2022-12-20T23:39:12.939Z,58.97
2022-12-20T23:41:40.655Z,66.50
2022-12-20T23:44:07.640Z,67.88
2022-12-20T23:46:34.840Z,64.90
2022-12-20T23:49:01.884Z,58.65
2022-12-20T23:51:28.915Z,71.30
2022-12-20T23:53:55.816Z,62.70
2022-12-20T23:56:23.596Z,72.10
2022-12-20T23:58:53.700Z,68.13
